Time;durP1;ratioP1;P1;durP2;ratioP2;P2;SDS_P1;SDS_P2;PMS_P1;PMS_P2;Temp;Humidity;BMP_temperature;BMP_pressure;BME280_temperature;BME280_humidity;BME280_pressure;Samples;Min_cycle;Max_cycle;Signal;HPM_P1;HPM_P2
2021/03/31 00:00:14;;;;;;;10.90;6.23;;;10.80;96.50;;;;;;5011380;28;20445;-46
2021/03/31 00:02:41;;;;;;;7.83;5.10;;;10.70;97.00;;;;;;5012063;28;20964;-46
2021/03/31 00:05:08;;;;;;;9.87;5.83;;;10.50;97.30;;;;;;5011841;28;20449;-46
2021/03/31 00:07:34;;;;;;;10.80;6.30;;;10.60;97.30;;;;;;5011745;28;20536;-46
2021/03/31 00:10:01;;;;;;;10.40;6.47;;;10.50;97.50;;;;;;5012059;28;20489;-46
2021/03/31 00:12:28;;;;;;;15.40;7.60;;;10.60;97.40;;;;;;5011969;28;20449;-46
2021/03/31 00:14:55;;;;;;;13.47;7.23;;;10.60;97.30;;;;;;5011748;28;20445;-46
2021/03/31 00:17:21;;;;;;;14.00;7.20;;;10.60;97.30;;;;;;5011509;28;20477;-47
2021/03/31 00:19:48;;;;;;;14.57;7.03;;;10.50;97.70;;;;;;5011603;28;20824;-46
2021/03/31 00:22:14;;;;;;;12.70;7.63;;;10.60;97.30;;;;;;5011353;28;20449;-46
2021/03/31 00:24:41;;;;;;;11.03;6.30;;;10.50;97.40;;;;;;5011778;28;20512;-46
2021/03/31 00:27:08;;;;;;;17.03;6.10;;;10.30;97.70;;;;;;5011621;28;20986;-46
2021/03/31 00:29:38;;;;;;;13.93;5.77;;;10.40;97.80;;;;;;5011806;28;20481;-46
2021/03/31 00:32:05;;;;;;;9.33;6.10;;;10.40;97.70;;;;;;5011810;28;20939;-46
2021/03/31 00:34:35;;;;;;;13.20;5.70;;;10.20;98.00;;;;;;5011530;28;20450;-46
2021/03/31 00:37:02;;;;;;;11.27;5.87;;;10.30;98.00;;;;;;5011764;28;20477;-46
2021/03/31 00:39:33;;;;;;;10.40;6.10;;;10.30;97.80;;;;;;5011891;28;20441;-46
2021/03/31 00:41:59;;;;;;;8.70;5.10;;;10.30;97.70;;;;;;5011488;28;20449;-46
2021/03/31 00:44:26;;;;;;;10.90;5.60;;;10.30;97.80;;;;;;5011433;28;20955;-46
2021/03/31 00:46:53;;;;;;;7.67;5.50;;;10.30;97.80;;;;;;5011182;28;20470;-46
2021/03/31 00:49:19;;;;;;;11.03;6.20;;;10.20;97.90;;;;;;5011211;28;20457;-46
2021/03/31 00:51:46;;;;;;;8.93;5.50;;;10.00;98.50;;;;;;5011553;28;20460;-46
2021/03/31 00:54:13;;;;;;;8.77;5.27;;;9.70;99.60;;;;;;5011196;28;20457;-46
2021/03/31 00:56:40;;;;;;;11.30;6.00;;;9.80;99.50;;;;;;5010922;28;21202;-46
2021/03/31 00:59:07;;;;;;;7.63;5.20;;;9.90;99.40;;;;;;5011213;28;20475;-46
2021/03/31 01:01:33;;;;;;;9.80;5.30;;;9.90;99.20;;;;;;5011133;28;20449;-46
2021/03/31 01:04:01;;;;;;;7.97;5.50;;;9.90;99.40;;;;;;5011302;28;20512;-46
2021/03/31 01:06:27;;;;;;;8.70;5.10;;;9.80;99.60;;;;;;5010387;28;20488;-46
2021/03/31 01:08:54;;;;;;;8.43;5.27;;;9.90;99.50;;;;;;5010918;28;20845;-47
2021/03/31 01:11:29;;;;;;;9.27;5.17;;;9.70;99.70;;;;;;5011131;28;20496;-46
2021/03/31 01:14:05;;;;;;;5.63;4.67;;;9.70;99.90;;;;;;5010978;28;20868;-46
2021/03/31 01:16:42;;;;;;;9.93;5.97;;;9.70;99.90;;;;;;5010239;28;20564;-46
2021/03/31 01:19:29;;;;;;;9.77;5.70;;;9.50;99.90;;;;;;5010996;28;20452;-46
2021/03/31 01:22:38;;;;;;;11.00;5.53;;;9.40;99.90;;;;;;5010509;28;20445;-46
2021/03/31 01:25:16;;;;;;;8.50;5.07;;;9.40;99.90;;;;;;4985416;28;20453;-46
2021/03/31 01:28:07;;;;;;;14.70;6.00;;;9.40;99.90;;;;;;5010851;28;20540;-46
2021/03/31 01:30:41;;;;;;;8.37;5.20;;;9.40;99.90;;;;;;5010758;28;20485;-46
2021/03/31 01:33:42;;;;;;;7.30;5.00;;;9.50;99.90;;;;;;5011454;28;20461;-46
2021/03/31 01:36:12;;;;;;;10.20;5.70;;;9.50;99.90;;;;;;5011880;28;20555;-46
2021/03/31 01:38:42;;;;;;;8.17;6.17;;;9.50;99.90;;;;;;5015186;28;20449;-46
2021/03/31 01:41:10;;;;;;;8.43;5.87;;;9.30;99.90;;;;;;5014825;28;20437;-46
2021/03/31 01:43:36;;;;;;;8.70;5.87;;;9.20;99.90;;;;;;5014685;28;20456;-46
2021/03/31 01:46:03;;;;;;;10.00;5.30;;;9.10;99.90;;;;;;5013581;28;20442;-46
2021/03/31 01:48:32;;;;;;;8.77;5.40;;;8.90;99.90;;;;;;5014782;28;20479;-46
2021/03/31 01:51:03;;;;;;;9.93;5.20;;;9.00;99.90;;;;;;5014594;28;20488;-46
2021/03/31 01:53:32;;;;;;;7.50;5.17;;;9.10;99.90;;;;;;5014095;28;21125;-46
2021/03/31 01:56:00;;;;;;;10.73;5.23;;;9.10;99.90;;;;;;5014178;28;20461;-46
2021/03/31 01:58:30;;;;;;;7.23;4.63;;;9.10;99.90;;;;;;5014498;28;20444;-46
2021/03/31 02:00:57;;;;;;;8.90;5.43;;;8.80;99.90;;;;;;5014276;28;20453;-46
2021/03/31 02:03:24;;;;;;;10.67;5.60;;;8.70;99.90;;;;;;5014981;28;20457;-46
2021/03/31 02:05:51;;;;;;;8.37;5.67;;;8.70;99.90;;;;;;5014374;28;20441;-46
2021/03/31 02:08:20;;;;;;;10.00;5.37;;;8.70;99.90;;;;;;5014115;28;20555;-46
2021/03/31 02:10:50;;;;;;;6.83;6.13;;;8.60;99.90;;;;;;5013856;28;20485;-46
2021/03/31 02:13:18;;;;;;;10.03;5.50;;;8.60;99.90;;;;;;5014554;28;20445;-46
2021/03/31 02:15:47;;;;;;;9.37;5.53;;;8.40;99.90;;;;;;5013364;28;20449;-46
2021/03/31 02:18:16;;;;;;;9.20;6.07;;;8.50;99.90;;;;;;5014004;28;20481;-46
2021/03/31 02:20:43;;;;;;;11.43;6.23;;;8.60;99.90;;;;;;5013992;28;20515;-45
2021/03/31 02:23:10;;;;;;;10.63;6.00;;;8.50;99.90;;;;;;5013705;28;20452;-46
2021/03/31 02:25:37;;;;;;;13.07;6.10;;;8.60;99.90;;;;;;5013512;28;20957;-46
2021/03/31 02:28:05;;;;;;;12.93;6.27;;;8.50;99.90;;;;;;5013966;28;20465;-46
2021/03/31 02:30:31;;;;;;;10.47;5.90;;;8.40;99.90;;;;;;5013653;28;20477;-46
2021/03/31 02:33:01;;;;;;;12.80;6.67;;;8.50;99.90;;;;;;5013559;28;20460;-46
2021/03/31 02:35:30;;;;;;;8.20;6.10;;;8.30;99.90;;;;;;5013548;28;20453;-46
2021/03/31 02:37:59;;;;;;;14.10;6.20;;;8.10;99.90;;;;;;5013365;28;20477;-46
2021/03/31 02:40:27;;;;;;;6.73;5.40;;;8.10;99.90;;;;;;5013821;28;20449;-46
2021/03/31 02:42:56;;;;;;;9.20;6.30;;;8.20;99.90;;;;;;5013785;28;20464;-46
2021/03/31 02:45:25;;;;;;;10.67;5.60;;;8.30;99.90;;;;;;5012954;28;20450;-46
2021/03/31 02:47:53;;;;;;;12.43;7.07;;;8.30;99.90;;;;;;5013461;28;21029;-46
2021/03/31 02:50:22;;;;;;;11.20;6.90;;;8.20;99.90;;;;;;5013696;28;20485;-46
2021/03/31 02:52:50;;;;;;;10.03;6.67;;;8.10;99.90;;;;;;5013362;28;20454;-46
2021/03/31 02:55:18;;;;;;;9.53;6.10;;;8.20;99.90;;;;;;5013279;28;20515;-46
2021/03/31 02:57:45;;;;;;;13.00;8.07;;;8.00;99.90;;;;;;5013274;28;20483;-46
2021/03/31 03:00:13;;;;;;;12.77;6.90;;;8.00;99.90;;;;;;5012591;28;20456;-46
2021/03/31 03:02:43;;;;;;;14.87;8.20;;;7.90;99.90;;;;;;5013410;28;20449;-46
2021/03/31 03:05:11;;;;;;;13.33;7.30;;;7.80;99.90;;;;;;5013037;28;20495;-46
2021/03/31 03:07:39;;;;;;;11.40;7.70;;;7.80;99.90;;;;;;5053631;22;20497;-49
2021/03/31 03:10:08;;;;;;;14.93;7.27;;;7.70;99.90;;;;;;5052701;28;20484;-49
2021/03/31 03:12:42;;;;;;;15.90;7.57;;;7.70;99.90;;;;;;5052767;28;20447;-49
2021/03/31 03:15:11;;;;;;;9.67;7.33;;;7.90;99.90;;;;;;5050974;28;20454;-49
2021/03/31 03:17:38;;;;;;;13.90;7.60;;;7.90;99.90;;;;;;5052618;28;20471;-48
2021/03/31 03:20:08;;;;;;;15.70;8.67;;;7.90;99.90;;;;;;5052742;28;20448;-49
2021/03/31 03:22:36;;;;;;;17.67;8.80;;;8.00;99.90;;;;;;5051763;28;20455;-49
2021/03/31 03:25:04;;;;;;;17.90;9.00;;;7.80;99.90;;;;;;5050561;28;20451;-48
2021/03/31 03:27:31;;;;;;;14.70;8.57;;;7.70;99.90;;;;;;5052321;28;20851;-48
2021/03/31 03:29:58;;;;;;;14.40;8.33;;;7.60;99.90;;;;;;5033209;28;20855;-48
2021/03/31 03:32:25;;;;;;;14.87;7.90;;;7.60;99.90;;;;;;5023338;28;20448;-48
2021/03/31 03:34:55;;;;;;;12.40;8.47;;;7.50;99.90;;;;;;5020563;28;20961;-48
2021/03/31 03:37:23;;;;;;;14.77;8.70;;;7.50;99.90;;;;;;5012748;28;20477;-49
2021/03/31 03:39:49;;;;;;;14.90;8.77;;;7.60;99.90;;;;;;5028686;28;20584;-49
2021/03/31 03:42:16;;;;;;;13.20;8.40;;;7.80;99.90;;;;;;5020511;28;20457;-49
2021/03/31 03:44:42;;;;;;;14.77;8.07;;;7.70;99.90;;;;;;5021189;28;20960;-49
2021/03/31 03:47:09;;;;;;;11.93;8.50;;;7.60;99.90;;;;;;5031871;28;20464;-49
2021/03/31 03:49:37;;;;;;;14.63;8.50;;;7.80;99.90;;;;;;5029270;28;20477;-49
2021/03/31 03:52:05;;;;;;;13.00;8.10;;;7.70;99.90;;;;;;5033267;28;20479;-49
2021/03/31 03:54:36;;;;;;;17.23;8.57;;;7.50;99.90;;;;;;5051974;28;20447;-49
2021/03/31 03:57:03;;;;;;;14.00;8.00;;;7.50;99.90;;;;;;5051288;28;20468;-49
2021/03/31 03:59:30;;;;;;;13.30;7.83;;;7.50;99.90;;;;;;5046097;28;20988;-48
2021/03/31 04:01:58;;;;;;;11.20;7.53;;;7.50;99.90;;;;;;5031527;28;20868;-48
2021/03/31 04:04:26;;;;;;;14.20;8.23;;;7.40;99.90;;;;;;5028565;28;20449;-49
2021/03/31 04:06:58;;;;;;;13.40;7.50;;;7.40;99.90;;;;;;5030241;28;20466;-49
2021/03/31 04:09:25;;;;;;;11.80;7.70;;;7.30;99.90;;;;;;5028579;28;20437;-48
2021/03/31 04:11:56;;;;;;;13.67;7.70;;;7.30;99.90;;;;;;5030517;28;20445;-49
2021/03/31 04:14:23;;;;;;;13.70;7.00;;;7.10;99.90;;;;;;5031148;28;20873;-49
2021/03/31 04:16:49;;;;;;;13.23;8.10;;;7.10;99.90;;;;;;5032547;28;20446;-48
2021/03/31 04:19:18;;;;;;;12.50;7.60;;;7.10;99.90;;;;;;5030592;28;20473;-49
2021/03/31 04:21:45;;;;;;;16.20;7.70;;;7.20;99.90;;;;;;5030022;28;20445;-48
2021/03/31 04:24:13;;;;;;;12.90;8.30;;;7.10;99.90;;;;;;5030570;28;20454;-49
2021/03/31 04:26:40;;;;;;;11.20;7.23;;;7.00;99.90;;;;;;5030215;28;20478;-48
2021/03/31 04:29:09;;;;;;;13.97;7.87;;;7.10;99.90;;;;;;5027290;28;20457;-48
2021/03/31 04:31:37;;;;;;;19.93;8.70;;;7.20;99.90;;;;;;5028266;28;20534;-49
2021/03/31 04:34:05;;;;;;;16.37;8.83;;;7.00;99.90;;;;;;5031566;28;20784;-47
2021/03/31 04:36:32;;;;;;;13.07;7.60;;;6.90;99.90;;;;;;5030045;28;20448;-48
2021/03/31 04:38:58;;;;;;;11.13;7.63;;;7.00;99.90;;;;;;5029246;28;20451;-48
2021/03/31 04:41:25;;;;;;;10.93;7.83;;;7.10;99.90;;;;;;5029975;28;20472;-49
2021/03/31 04:43:52;;;;;;;14.00;7.70;;;7.10;99.90;;;;;;5030032;28;20549;-48
2021/03/31 04:46:19;;;;;;;14.33;7.77;;;7.20;99.90;;;;;;5029767;28;20531;-48
2021/03/31 04:48:46;;;;;;;14.97;7.93;;;7.20;99.90;;;;;;5029603;28;20848;-47
2021/03/31 04:51:14;;;;;;;13.77;7.90;;;7.20;99.90;;;;;;5030451;28;20483;-49
2021/03/31 04:53:40;;;;;;;13.43;8.13;;;7.10;99.90;;;;;;5030276;28;20996;-48
2021/03/31 04:56:07;;;;;;;13.97;8.83;;;6.80;99.90;;;;;;5027782;28;20441;-49
2021/03/31 04:58:34;;;;;;;19.03;8.67;;;6.90;99.90;;;;;;5030422;28;20465;-48
2021/03/31 05:01:01;;;;;;;20.17;8.87;;;6.90;99.90;;;;;;5030623;28;20437;-48
2021/03/31 05:03:29;;;;;;;15.40;9.07;;;6.60;99.90;;;;;;5029514;28;21133;-49
2021/03/31 05:05:58;;;;;;;16.37;9.13;;;6.70;99.90;;;;;;5030637;28;20441;-48
2021/03/31 05:08:24;;;;;;;12.03;8.33;;;6.90;99.90;;;;;;5030915;28;20476;-47
2021/03/31 05:10:51;;;;;;;16.73;8.80;;;6.70;99.90;;;;;;5039399;28;20477;-51
2021/03/31 05:13:17;;;;;;;17.93;9.13;;;6.60;99.90;;;;;;5044780;28;20448;-48
2021/03/31 05:15:46;;;;;;;14.00;8.43;;;6.50;99.90;;;;;;5045081;28;20459;-48
2021/03/31 05:18:12;;;;;;;14.70;8.30;;;6.70;99.90;;;;;;5045422;28;20500;-48
2021/03/31 05:20:40;;;;;;;18.50;9.10;;;6.80;99.90;;;;;;5044971;28;20442;-48
2021/03/31 05:23:07;;;;;;;15.87;8.40;;;6.80;99.90;;;;;;5042250;28;20517;-49
2021/03/31 05:25:34;;;;;;;18.03;9.63;;;6.90;99.90;;;;;;5030494;28;20866;-48
2021/03/31 05:28:01;;;;;;;15.40;9.53;;;6.90;99.90;;;;;;5030249;28;20467;-48
2021/03/31 05:30:28;;;;;;;16.80;9.40;;;7.00;99.90;;;;;;5028669;28;20564;-49
2021/03/31 05:32:54;;;;;;;13.90;8.87;;;7.10;99.90;;;;;;5030141;28;20468;-48
2021/03/31 05:35:21;;;;;;;15.50;8.07;;;7.00;99.90;;;;;;5032516;28;20494;-49
2021/03/31 05:37:48;;;;;;;16.47;9.37;;;7.10;99.90;;;;;;5030311;28;20901;-48
2021/03/31 05:40:16;;;;;;;16.90;9.00;;;7.30;99.90;;;;;;5029618;28;20444;-48
2021/03/31 05:42:43;;;;;;;13.17;8.53;;;7.10;99.90;;;;;;5030856;28;20444;-48
2021/03/31 05:45:12;;;;;;;14.00;8.30;;;7.30;99.90;;;;;;5030450;28;20830;-49
2021/03/31 05:47:40;;;;;;;14.67;8.17;;;7.50;99.90;;;;;;5027907;28;20468;-48
2021/03/31 05:50:09;;;;;;;16.30;8.50;;;7.50;99.90;;;;;;5042952;28;20498;-48
2021/03/31 05:52:36;;;;;;;24.43;9.57;;;7.70;99.90;;;;;;5026960;28;20452;-48
2021/03/31 05:55:04;;;;;;;15.30;9.63;;;7.70;99.90;;;;;;5025272;28;20475;-48
2021/03/31 05:57:33;;;;;;;25.77;11.60;;;8.00;99.90;;;;;;5028035;28;20510;-49
2021/03/31 06:00:00;;;;;;;18.17;10.00;;;8.20;99.90;;;;;;5010858;28;20444;-49
2021/03/31 06:02:29;;;;;;;20.47;10.73;;;9.00;99.90;;;;;;5017546;28;20543;-47
2021/03/31 06:04:55;;;;;;;22.90;10.00;;;10.00;99.90;;;;;;5031474;28;20473;-49
2021/03/31 06:07:22;;;;;;;19.67;10.53;;;11.10;99.90;;;;;;5020844;28;20504;-49
2021/03/31 06:10:10;;;;;;;15.80;9.63;;;12.10;99.90;;;;;;5010369;28;20831;-49
2021/03/31 06:12:39;;;;;;;20.37;12.53;;;13.20;99.90;;;;;;5026968;28;20463;-50
2021/03/31 06:15:17;;;;;;;37.30;14.40;;;14.00;99.90;;;;;;5029735;28;20876;-48
2021/03/31 06:17:53;;;;;;;26.60;15.97;;;14.30;99.70;;;;;;5028925;28;20511;-49
2021/03/31 06:20:37;;;;;;;26.77;14.33;;;14.10;98.70;;;;;;5032311;28;20864;-49
2021/03/31 06:23:12;;;;;;;24.00;12.93;;;14.90;99.10;;;;;;5033004;28;20457;-50
2021/03/31 06:25:46;;;;;;;20.90;10.53;;;15.70;97.50;;;;;;5033019;28;20498;-50
2021/03/31 06:28:12;;;;;;;18.63;10.50;;;16.50;95.90;;;;;;5033521;28;20555;-52
2021/03/31 06:30:39;;;;;;;19.77;9.80;;;17.10;95.60;;;;;;5032717;28;20485;-50
2021/03/31 06:33:06;;;;;;;17.87;9.23;;;17.40;94.70;;;;;;5033352;28;20961;-51
2021/03/31 06:35:32;;;;;;;20.73;8.63;;;18.00;93.70;;;;;;5033561;28;20452;-51
2021/03/31 06:38:06;;;;;;;19.43;8.43;;;18.50;92.30;;;;;;5033436;28;20483;-50
2021/03/31 06:40:40;;;;;;;12.37;6.50;;;18.80;92.10;;;;;;5033403;28;20452;-51
2021/03/31 06:43:15;;;;;;;8.40;5.60;;;19.20;89.80;;;;;;5033464;28;20502;-51
2021/03/31 06:45:50;;;;;;;15.20;6.20;;;19.70;88.10;;;;;;5033180;28;20531;-51
2021/03/31 06:48:17;;;;;;;8.53;5.43;;;20.20;85.90;;;;;;5033195;28;20998;-50
2021/03/31 06:50:43;;;;;;;10.23;5.37;;;20.60;83.40;;;;;;5033292;28;20484;-51
2021/03/31 06:53:10;;;;;;;8.73;4.40;;;20.80;80.80;;;;;;5033023;28;20445;-51
2021/03/31 06:55:36;;;;;;;8.00;4.13;;;20.30;78.50;;;;;;5032830;28;20478;-52
2021/03/31 06:58:06;;;;;;;11.10;4.77;;;20.20;78.00;;;;;;5032859;28;20468;-51
2021/03/31 07:00:35;;;;;;;10.38;4.60;;;20.20;76.40;;;;;;5026448;28;20460;-51
2021/03/31 07:03:04;;;;;;;6.73;4.53;;;20.20;77.10;;;;;;5031427;28;20202;-50
2021/03/31 07:05:32;;;;;;;7.10;4.07;;;20.70;74.70;;;;;;5031416;28;20486;-51
2021/03/31 07:08:04;;;;;;;10.47;5.37;;;20.40;75.80;;;;;;5031963;28;20550;-51
2021/03/31 07:10:41;;;;;;;9.23;4.90;;;20.70;77.00;;;;;;5032322;28;20484;-51
2021/03/31 07:13:08;;;;;;;12.47;4.90;;;20.60;74.20;;;;;;5030992;28;20455;-52
2021/03/31 07:15:36;;;;;;;7.03;3.90;;;20.10;74.80;;;;;;5028567;28;20835;-53
2021/03/31 07:18:03;;;;;;;7.33;3.90;;;20.10;76.70;;;;;;5032520;28;20921;-53
2021/03/31 07:20:31;;;;;;;8.10;3.40;;;20.40;76.50;;;;;;5032255;28;20453;-51
2021/03/31 07:23:01;;;;;;;9.77;3.57;;;20.90;72.20;;;;;;5032487;28;20452;-52
2021/03/31 07:25:28;;;;;;;9.10;3.03;;;20.80;73.30;;;;;;5032519;28;20543;-51
2021/03/31 07:27:57;;;;;;;6.63;2.67;;;20.90;74.20;;;;;;5029970;28;20472;-51
2021/03/31 07:30:27;;;;;;;7.60;2.93;;;20.70;72.50;;;;;;5030680;28;20504;-52
2021/03/31 07:32:58;;;;;;;5.00;2.77;;;21.00;71.40;;;;;;5031240;28;20460;-52
2021/03/31 07:35:27;;;;;;;4.90;2.87;;;20.50;74.40;;;;;;5031945;28;20452;-51
2021/03/31 07:37:56;;;;;;;7.43;2.77;;;20.60;76.20;;;;;;5031540;28;21011;-52
2021/03/31 07:40:22;;;;;;;4.73;2.40;;;20.90;74.60;;;;;;5031943;28;20445;-51
2021/03/31 07:42:53;;;;;;;5.30;2.20;;;20.90;74.60;;;;;;5030484;28;20448;-52
2021/03/31 07:45:24;;;;;;;5.57;2.33;;;21.00;71.90;;;;;;5031371;28;20540;-52
2021/03/31 07:47:52;;;;;;;6.17;2.30;;;21.40;70.00;;;;;;5031632;28;20496;-52
2021/03/31 07:50:20;;;;;;;5.70;2.50;;;21.80;70.20;;;;;;5031770;28;20488;-53
2021/03/31 07:52:55;;;;;;;6.77;2.33;;;21.30;72.40;;;;;;5031683;28;20459;-52
2021/03/31 07:55:36;;;;;;;4.43;2.53;;;21.60;71.40;;;;;;5031107;28;20456;-51
2021/03/31 07:58:17;;;;;;;4.87;2.10;;;21.20;71.60;;;;;;5031327;28;20511;-52
2021/03/31 08:00:59;;;;;;;6.00;2.70;;;21.70;69.50;;;;;;5031028;28;20875;-51
2021/03/31 08:03:26;;;;;;;5.27;2.30;;;21.50;67.60;;;;;;5031556;28;20448;-52
2021/03/31 08:06:05;;;;;;;9.57;2.70;;;21.90;66.30;;;;;;5030578;28;20460;-52
2021/03/31 08:08:32;;;;;;;7.47;2.80;;;20.30;66.80;;;;;;5031204;28;20483;-52
2021/03/31 08:10:59;;;;;;;3.77;2.33;;;20.70;68.10;;;;;;5031217;28;20977;-51
2021/03/31 08:13:28;;;;;;;10.77;2.97;;;21.30;67.20;;;;;;5030996;28;20535;-52
2021/03/31 08:15:56;;;;;;;8.30;2.70;;;21.90;71.50;;;;;;5030395;28;20479;-51
2021/03/31 08:18:24;;;;;;;8.03;2.80;;;21.90;64.70;;;;;;5030917;28;20472;-51
2021/03/31 08:20:51;;;;;;;7.10;2.33;;;21.80;68.60;;;;;;5031002;28;20961;-50
2021/03/31 08:23:48;;;;;;;4.00;1.80;;;21.90;67.60;;;;;;5031193;28;20441;-52
2021/03/31 08:26:28;;;;;;;8.50;2.97;;;21.90;68.60;;;;;;5030152;28;20437;-51
2021/03/31 08:28:55;;;;;;;8.70;2.73;;;20.80;68.80;;;;;;5031030;28;20564;-50
2021/03/31 08:31:23;;;;;;;5.40;2.53;;;21.40;75.00;;;;;;5030380;28;20566;-51
2021/03/31 08:33:49;;;;;;;8.40;1.97;;;21.80;70.80;;;;;;5030899;28;20475;-50
2021/03/31 08:36:16;;;;;;;12.17;3.50;;;22.20;70.00;;;;;;5030587;28;20872;-51
2021/03/31 08:38:50;;;;;;;6.47;2.77;;;21.80;66.30;;;;;;5030680;28;20471;-50
2021/03/31 08:41:18;;;;;;;13.20;2.97;;;21.90;71.30;;;;;;5026945;28;20444;-51
2021/03/31 08:43:46;;;;;;;8.63;2.23;;;22.10;68.50;;;;;;5019174;28;20456;-51
2021/03/31 08:46:13;;;;;;;7.43;2.20;;;22.30;69.70;;;;;;5012363;28;20464;-51
2021/03/31 08:48:41;;;;;;;6.73;2.50;;;22.30;70.70;;;;;;5031229;28;20503;-50
2021/03/31 08:51:16;;;;;;;7.90;2.57;;;22.40;69.30;;;;;;5030880;28;20483;-50
2021/03/31 08:53:42;;;;;;;7.53;2.27;;;22.20;69.40;;;;;;5031004;28;20451;-51
2021/03/31 08:56:17;;;;;;;7.60;2.60;;;22.40;71.00;;;;;;5030665;28;20452;-51
2021/03/31 08:58:44;;;;;;;7.97;2.53;;;22.30;67.00;;;;;;5031205;28;20670;-50
2021/03/31 09:01:11;;;;;;;10.13;2.50;;;22.40;69.90;;;;;;5030900;28;20451;-50
2021/03/31 09:03:37;;;;;;;7.03;2.73;;;22.10;69.70;;;;;;5030346;28;20457;-50
2021/03/31 09:06:04;;;;;;;6.90;2.33;;;22.70;63.70;;;;;;5030783;28;20802;-52
2021/03/31 09:08:31;;;;;;;9.13;2.83;;;23.40;60.30;;;;;;5043028;22;20561;-47
2021/03/31 09:11:00;;;;;;;7.43;2.70;;;23.80;59.40;;;;;;5022532;28;20907;-47
2021/03/31 09:13:30;;;;;;;3.33;2.13;;;23.50;59.60;;;;;;5023452;28;20456;-49
2021/03/31 09:15:58;;;;;;;5.70;2.10;;;24.30;58.70;;;;;;5020098;28;20449;-47
2021/03/31 09:18:25;;;;;;;5.80;2.43;;;24.90;60.90;;;;;;5010883;28;20500;-47
2021/03/31 09:20:52;;;;;;;3.93;2.30;;;23.80;61.10;;;;;;5012373;28;20950;-47
2021/03/31 09:23:24;;;;;;;8.73;2.30;;;23.40;71.10;;;;;;5020690;28;20459;-47
2021/03/31 09:26:01;;;;;;;5.93;2.77;;;23.60;65.70;;;;;;5030449;28;20508;-47
2021/03/31 09:28:29;;;;;;;4.87;2.27;;;23.80;61.70;;;;;;5030524;28;20840;-47
2021/03/31 09:31:01;;;;;;;4.03;2.20;;;24.30;59.80;;;;;;5030839;28;20492;-48
2021/03/31 09:33:31;;;;;;;4.90;2.87;;;24.60;59.00;;;;;;5029010;28;20448;-47
2021/03/31 09:36:11;;;;;;;6.40;2.50;;;23.40;64.60;;;;;;5028175;28;20461;-47
2021/03/31 09:38:37;;;;;;;4.43;2.47;;;23.70;63.30;;;;;;5023413;28;21049;-47
2021/03/31 09:41:05;;;;;;;11.27;2.40;;;24.50;57.70;;;;;;5030617;28;20490;-47
2021/03/31 09:43:34;;;;;;;5.37;2.30;;;24.80;57.10;;;;;;5030399;28;20457;-47
2021/03/31 09:46:01;;;;;;;8.53;2.70;;;24.90;59.40;;;;;;5029367;28;20483;-48
2021/03/31 09:48:28;;;;;;;7.10;2.40;;;25.10;56.50;;;;;;5010604;28;20719;-47
2021/03/31 09:50:55;;;;;;;5.67;2.53;;;25.80;57.20;;;;;;5017465;28;20499;-47
2021/03/31 09:53:25;;;;;;;4.80;2.60;;;25.40;55.00;;;;;;5030390;28;20463;-47
2021/03/31 09:55:53;;;;;;;5.47;2.50;;;24.90;60.70;;;;;;5033294;28;20971;-48
2021/03/31 09:58:24;;;;;;;6.97;2.17;;;25.00;60.90;;;;;;5015626;28;20637;-48
2021/03/31 10:00:52;;;;;;;8.53;2.30;;;25.10;57.60;;;;;;5014483;28;20446;-48
2021/03/31 10:03:20;;;;;;;5.20;2.00;;;25.20;56.50;;;;;;5014289;28;20930;-47
2021/03/31 10:05:46;;;;;;;4.93;1.93;;;24.40;62.30;;;;;;5014505;28;20489;-48
2021/03/31 10:08:21;;;;;;;9.43;2.67;;;24.40;63.70;;;;;;5026698;28;20534;-47
2021/03/31 10:10:51;;;;;;;5.67;2.50;;;24.30;59.30;;;;;;5034283;28;20491;-47
2021/03/31 10:13:21;;;;;;;3.93;2.27;;;24.60;59.10;;;;;;5028350;28;20452;-47
2021/03/31 10:15:57;;;;;;;5.17;2.17;;;24.80;63.50;;;;;;5023379;28;20813;-47
2021/03/31 10:18:24;;;;;;;5.20;2.40;;;25.00;60.00;;;;;;5014018;28;20496;-48
2021/03/31 10:20:51;;;;;;;7.83;3.07;;;25.00;58.70;;;;;;5014237;28;20471;-47
2021/03/31 10:23:28;;;;;;;4.40;2.43;;;24.20;60.00;;;;;;5016040;28;20536;-47
2021/03/31 10:26:20;;;;;;;10.90;4.03;;;24.40;59.40;;;;;;5013768;28;20810;-47
2021/03/31 10:28:47;;;;;;;8.50;5.50;;;23.80;69.30;;;;;;5014039;28;20993;-47
2021/03/31 10:31:31;;;;;;;7.17;5.60;;;22.90;73.10;;;;;;5014026;28;21021;-47
2021/03/31 10:33:57;;;;;;;9.43;6.60;;;23.00;73.90;;;;;;5014965;28;20544;-47
2021/03/31 10:36:46;;;;;;;11.23;7.07;;;22.50;74.60;;;;;;5015616;28;20448;-47
2021/03/31 10:50:50;;;;;;;16.00;8.60;;;22.10;76.00;;;;;;5033282;28;20610;-47
2021/03/31 10:53:17;;;;;;;14.87;7.50;;;21.60;76.70;;;;;;5033205;28;20513;-47
2021/03/31 10:55:45;;;;;;;13.70;8.83;;;21.60;74.90;;;;;;5032701;28;20950;-46
2021/03/31 10:58:12;;;;;;;12.73;7.70;;;21.70;77.10;;;;;;5033255;28;20480;-46
2021/03/31 11:00:39;;;;;;;13.63;7.33;;;22.00;77.70;;;;;;5033133;28;20436;-47
2021/03/31 11:03:07;;;;;;;12.37;7.83;;;22.10;73.20;;;;;;5033042;28;20482;-47
2021/03/31 11:05:33;;;;;;;17.40;8.15;;;22.20;72.80;;;;;;5032458;28;20437;-47
2021/03/31 11:08:00;;;;;;;11.70;7.60;;;21.90;70.70;;;;;;5050777;28;20620;-47
2021/03/31 11:10:27;;;;;;;14.17;7.50;;;21.90;70.10;;;;;;5052756;28;20486;-47
2021/03/31 11:12:53;;;;;;;13.70;7.50;;;22.00;71.40;;;;;;5052841;28;20447;-46
2021/03/31 11:15:22;;;;;;;11.83;7.53;;;22.20;69.40;;;;;;5052381;28;21027;-47
2021/03/31 11:18:01;;;;;;;16.60;7.40;;;21.90;72.00;;;;;;5052439;28;20475;-47
2021/03/31 11:20:41;;;;;;;13.87;8.70;;;21.30;74.80;;;;;;5052221;28;20508;-46
2021/03/31 11:25:54;;;;;;;13.43;7.80;;;21.00;71.10;;;;;;5032175;28;20424;-47
2021/03/31 11:28:21;;;;;;;19.50;8.87;;;20.60;70.70;;;;;;5016297;28;20543;-47
2021/03/31 11:30:48;;;;;;;13.73;8.40;;;20.40;74.50;;;;;;5013352;28;20481;-46
2021/03/31 11:33:15;;;;;;;16.20;8.70;;;20.20;75.90;;;;;;5026517;28;20461;-47
2021/03/31 11:35:43;;;;;;;13.07;7.53;;;20.40;73.80;;;;;;5012264;28;20458;-47
2021/03/31 11:38:10;;;;;;;18.53;8.60;;;20.80;75.20;;;;;;5012151;28;21040;-47
2021/03/31 11:40:36;;;;;;;14.40;7.47;;;20.80;73.30;;;;;;5012174;28;20943;-47
2021/03/31 11:43:03;;;;;;;16.80;8.20;;;20.50;74.40;;;;;;5029897;28;20468;-47
2021/03/31 11:45:30;;;;;;;14.43;7.87;;;20.20;73.50;;;;;;5026965;28;20453;-47
2021/03/31 11:47:56;;;;;;;15.93;8.17;;;20.40;75.20;;;;;;5018567;28;20462;-47
2021/03/31 11:50:25;;;;;;;15.80;7.70;;;20.90;74.20;;;;;;5012123;28;20452;-47
2021/03/31 11:52:53;;;;;;;11.63;6.60;;;21.10;73.60;;;;;;5026477;28;20452;-47
2021/03/31 11:55:20;;;;;;;15.73;7.20;;;21.20;74.20;;;;;;5016511;28;20848;-46
2021/03/31 11:57:47;;;;;;;13.87;8.47;;;21.20;72.20;;;;;;5013447;28;20466;-47
2021/03/31 12:00:14;;;;;;;12.60;7.63;;;20.80;77.20;;;;;;5031946;28;21021;-47
2021/03/31 12:02:41;;;;;;;15.43;7.77;;;20.70;79.10;;;;;;5030743;28;20468;-47
2021/03/31 12:05:08;;;;;;;10.70;7.23;;;20.70;72.70;;;;;;5031445;28;20520;-47
2021/03/31 12:07:35;;;;;;;19.17;8.80;;;21.00;75.00;;;;;;5031258;28;20481;-49
2021/03/31 12:10:07;;;;;;;15.70;8.83;;;20.80;77.00;;;;;;5031352;28;20449;-47
2021/03/31 12:12:34;;;;;;;20.87;9.17;;;20.90;73.80;;;;;;5030333;28;20485;-47
2021/03/31 12:15:01;;;;;;;14.97;7.93;;;21.00;72.10;;;;;;5031339;28;20969;-46
2021/03/31 12:17:27;;;;;;;12.07;7.23;;;20.60;74.40;;;;;;5030810;28;20530;-47
2021/03/31 12:19:54;;;;;;;13.77;7.50;;;20.10;76.60;;;;;;5031337;28;20456;-47
2021/03/31 12:22:20;;;;;;;17.13;8.30;;;20.30;74.70;;;;;;5019341;28;20477;-47
2021/03/31 12:24:47;;;;;;;21.97;8.27;;;20.50;74.20;;;;;;5011253;28;20457;-46
2021/03/31 12:27:15;;;;;;;18.10;8.57;;;20.70;79.40;;;;;;5011187;28;20477;-47
2021/03/31 12:29:44;;;;;;;18.10;8.00;;;20.50;76.30;;;;;;5011413;28;20464;-47
2021/03/31 12:32:12;;;;;;;20.00;9.00;;;20.40;77.30;;;;;;5021283;28;20508;-47
2021/03/31 12:34:38;;;;;;;16.73;8.47;;;20.60;75.80;;;;;;5031081;28;20953;-47
2021/03/31 12:37:05;;;;;;;16.47;9.13;;;20.80;77.30;;;;;;5030701;28;20964;-47
2021/03/31 12:39:35;;;;;;;20.20;9.20;;;20.80;74.30;;;;;;5030780;28;20449;-47
2021/03/31 12:42:02;;;;;;;18.10;9.50;;;20.80;76.10;;;;;;5022208;28;20450;-47
2021/03/31 12:44:29;;;;;;;17.50;9.23;;;20.90;75.60;;;;;;5011176;28;20450;-47
2021/03/31 12:46:55;;;;;;;17.10;7.97;;;20.80;74.40;;;;;;5016154;28;20452;-47
2021/03/31 12:49:23;;;;;;;20.10;9.20;;;20.80;74.40;;;;;;5030763;28;20449;-48
2021/03/31 12:51:53;;;;;;;14.53;8.10;;;21.00;74.70;;;;;;5029947;28;20473;-47
2021/03/31 12:54:23;;;;;;;16.03;8.40;;;21.20;72.10;;;;;;5030652;28;20445;-47
2021/03/31 12:56:49;;;;;;;16.60;8.80;;;21.40;72.90;;;;;;5030857;28;20452;-47
2021/03/31 12:59:16;;;;;;;16.83;9.20;;;21.50;75.70;;;;;;5031219;28;20468;-47
2021/03/31 13:01:43;;;;;;;15.50;7.63;;;21.70;75.40;;;;;;5024716;28;20469;-47
2021/03/31 13:04:12;;;;;;;15.90;8.10;;;21.50;76.40;;;;;;5010776;28;20842;-47
2021/03/31 13:06:38;;;;;;;17.90;8.40;;;21.20;78.40;;;;;;5010446;28;20491;-47